This is the latest recevied weather packets stored in our database for station/object KD9IXX-13. If no packets are shown the sender has not sent any weather packets the latest 10 day(s).
| Time | Temp. | Humidity | Pressure | Rain* | Wind** | Luminosity | Snow |
|---|---|---|---|---|---|---|---|
| 1787936702 | 26.11° C | 64% | 1022.6 hPa | 0 mm | - | 613 W/m² | - |
| 1787936402 | 26.11° C | 66% | 1022.6 hPa | 0 mm | - | 638 W/m² | - |
| 1787936101 | 26.67° C | 66% | 1022.8 hPa | 0 mm | - | 636 W/m² | - |
| 1787935502 | 26.11° C | 64% | 1022.9 hPa | 0 mm | - | 610 W/m² | - |
| 1787934902 | 26.11° C | 65% | 1022.9 hPa | 0 mm | - | 622 W/m² | - |
| 1787933702 | 25.56° C | 67% | 1023 hPa | 0 mm | - | 602 W/m² | - |
| 1787933103 | 25° C | 68% | 1023 hPa | 0 mm | - | 648 W/m² | - |
| 1787932802 | 25.56° C | 66% | 1022.8 hPa | 0 mm | - | 651 W/m² | - |
| 1787931601 | 25° C | 66% | 1022.9 hPa | 0 mm | - | 643 W/m² | - |
| 1787931002 | 25.56° C | 66% | 1023 hPa | 0 mm | - | 646 W/m² | - |
| 1787929502 | 24.44° C | 66% | 1023.1 hPa | 0 mm | - | 211 W/m² | - |
| 1787929202 | 23.33° C | 71% | 1023.2 hPa | 0 mm | - | 703 W/m² | - |
| 1787928002 | 23.89° C | 71% | 1022.8 hPa | 0 mm | - | 560 W/m² | - |
| 1787927702 | 24.44° C | 69% | 1022.7 hPa | 0 mm | - | 580 W/m² | - |
| 1787927103 | 23.33° C | 72% | 1022.8 hPa | 0 mm | - | 517 W/m² | - |
| 1787926802 | 23.33° C | 74% | 1022.8 hPa | 0 mm | - | 488 W/m² | - |
| 1787926502 | 23.33° C | 72% | 1022.8 hPa | 0 mm | - | 491 W/m² | - |
| 1787926202 | 23.33° C | 71% | 1022.6 hPa | 0 mm | - | 469 W/m² | - |
| 1787925002 | 22.78° C | 75% | 1022.6 hPa | 0 mm | - | 302 W/m² | - |
| 1787924702 | 22.22° C | 79% | 1022.8 hPa | 0 mm | - | 348 W/m² | - |
| 1787924402 | 22.22° C | 77% | 1023 hPa | 0 mm | - | 327 W/m² | - |
| 1787923502 | 21.11° C | 79% | 1022.7 hPa | 0 mm | - | 256 W/m² | - |
| 1787923203 | 21.11° C | 80% | 1022.9 hPa | 0 mm | - | 248 W/m² | - |
| 1787922902 | 20.56° C | 82% | 1022.7 hPa | 0 mm | - | 119 W/m² | - |
| 1787922002 | 20° C | 85% | 1022.8 hPa | 0 mm | - | 211 W/m² | - |
* Rain latest hour (hover to see other rain measurements)
** Current wind speed in m/s (hover to see current wind gust speed)